createdAt,value
2022-11-05T00:00:31.865Z,4.80
2022-11-05T00:03:19.229Z,8.03
2022-11-05T00:06:07.127Z,4.77
2022-11-05T00:08:52.947Z,3.33
2022-11-05T00:11:41.412Z,4.20
2022-11-05T00:14:27.193Z,4.60
2022-11-05T00:16:55.598Z,6.50
2022-11-05T00:19:25.257Z,5.37
2022-11-05T00:22:10.903Z,3.23
2022-11-05T00:24:56.432Z,3.70
2022-11-05T00:27:24.936Z,6.10
2022-11-05T00:29:53.322Z,3.93
2022-11-05T00:32:21.500Z,6.80
2022-11-05T00:34:50.952Z,6.53
2022-11-05T00:37:19.379Z,5.63
2022-11-05T00:39:47.634Z,5.70
2022-11-05T00:42:34.020Z,11.30
2022-11-05T00:45:02.635Z,9.10
2022-11-05T00:47:49.011Z,10.73
2022-11-05T00:50:22.113Z,10.53
2022-11-05T00:52:58.761Z,9.27
2022-11-05T00:55:34.738Z,11.23
2022-11-05T00:58:04.131Z,9.43
2022-11-05T01:00:34.083Z,8.80
2022-11-05T01:03:03.864Z,8.70
2022-11-05T01:05:41.705Z,9.13
2022-11-05T01:08:12.847Z,11.83
2022-11-05T01:10:42.391Z,8.60
2022-11-05T01:13:13.130Z,8.60
2022-11-05T01:15:42.182Z,7.27
2022-11-05T01:18:10.925Z,11.03
2022-11-05T01:20:40.452Z,12.83
2022-11-05T01:23:13.315Z,8.87
2022-11-05T01:25:42.290Z,8.20
2022-11-05T01:28:11.387Z,8.73
2022-11-05T01:30:39.943Z,10.83
2022-11-05T01:33:09.077Z,10.30
2022-11-05T01:35:37.408Z,9.00
2022-11-05T01:38:07.100Z,9.37
2022-11-05T01:40:35.277Z,9.80
2022-11-05T01:43:03.626Z,8.50
2022-11-05T01:45:36.604Z,6.77
2022-11-05T01:48:10.080Z,9.83
2022-11-05T01:50:43.518Z,10.00
2022-11-05T01:53:21.663Z,13.87
2022-11-05T01:55:55.088Z,9.93
2022-11-05T01:58:26.511Z,12.50
2022-11-05T02:00:57.659Z,11.13
2022-11-05T02:03:27.179Z,9.53
2022-11-05T02:05:58.039Z,11.53
2022-11-05T02:08:37.634Z,8.30
2022-11-05T02:11:06.472Z,9.80
2022-11-05T02:13:37.273Z,10.37
2022-11-05T02:16:13.870Z,9.83
2022-11-05T02:18:54.207Z,10.00
2022-11-05T02:21:50.623Z,10.57
2022-11-05T02:24:51.876Z,14.00
2022-11-05T02:27:32.286Z,10.23
2022-11-05T02:30:34.550Z,11.57
2022-11-05T02:33:15.386Z,7.93
2022-11-05T02:36:09.835Z,10.10
2022-11-05T02:38:42.303Z,5.87
2022-11-05T02:41:19.549Z,7.10
2022-11-05T02:43:57.055Z,6.03
2022-11-05T02:46:36.730Z,6.60
2022-11-05T02:49:13.285Z,6.80
2022-11-05T02:51:48.402Z,8.43
2022-11-05T02:54:20.910Z,8.23
2022-11-05T02:56:53.040Z,8.90
2022-11-05T02:59:21.452Z,8.77
2022-11-05T03:01:52.385Z,10.30
2022-11-05T03:04:23.631Z,8.23
2022-11-05T03:07:23.735Z,10.57
2022-11-05T03:10:10.498Z,10.77
2022-11-05T03:12:48.527Z,11.57
2022-11-05T03:15:26.918Z,13.63
2022-11-05T03:18:04.955Z,14.97
2022-11-05T03:20:38.585Z,11.57
2022-11-05T03:23:16.340Z,12.63
2022-11-05T03:25:48.592Z,15.80
2022-11-05T03:28:20.919Z,12.67
2022-11-05T03:30:51.072Z,11.43
2022-11-05T03:33:25.249Z,12.87
2022-11-05T03:35:55.792Z,12.53
2022-11-05T03:38:28.620Z,14.60
2022-11-05T03:40:58.756Z,12.17
2022-11-05T03:43:31.685Z,13.60
2022-11-05T03:46:04.208Z,14.20
2022-11-05T03:48:36.988Z,12.83
2022-11-05T03:51:11.999Z,16.33
2022-11-05T03:53:45.250Z,11.00
2022-11-05T03:56:19.233Z,14.20
2022-11-05T03:58:48.537Z,12.20
2022-11-05T04:01:17.311Z,12.70
2022-11-05T04:03:47.267Z,12.57
2022-11-05T04:06:33.228Z,11.60
2022-11-05T04:09:18.820Z,13.23
2022-11-05T04:12:04.689Z,12.07
2022-11-05T04:14:33.224Z,14.30
2022-11-05T04:17:06.683Z,14.97
2022-11-05T04:19:54.763Z,12.43
2022-11-05T04:22:40.774Z,13.93
2022-11-05T04:25:09.506Z,18.10
2022-11-05T04:27:38.012Z,14.43
2022-11-05T04:30:18.570Z,14.83
2022-11-05T04:33:01.556Z,15.07
2022-11-05T04:35:32.571Z,19.73
2022-11-05T04:38:01.142Z,13.57
2022-11-05T04:40:29.856Z,15.77
2022-11-05T04:42:58.957Z,17.97
2022-11-05T04:45:28.738Z,13.47
2022-11-05T04:47:57.029Z,16.63
2022-11-05T04:50:25.427Z,16.13
2022-11-05T04:52:55.196Z,17.00
2022-11-05T04:55:23.512Z,17.37
2022-11-05T04:57:52.941Z,16.27
2022-11-05T05:00:22.747Z,13.40
2022-11-05T05:02:51.640Z,17.07
2022-11-05T05:05:21.256Z,17.73
2022-11-05T05:07:49.561Z,19.53
2022-11-05T05:10:19.089Z,16.03
2022-11-05T05:12:48.475Z,14.47
2022-11-05T05:15:16.975Z,13.83
2022-11-05T05:17:45.250Z,21.10
2022-11-05T05:20:31.059Z,14.20
2022-11-05T05:22:59.713Z,13.40
2022-11-05T05:25:29.296Z,16.20
2022-11-05T05:27:58.691Z,14.43
2022-11-05T05:30:26.942Z,13.97
2022-11-05T05:32:55.501Z,13.10
2022-11-05T05:35:23.943Z,16.30
2022-11-05T05:37:56.736Z,16.57
2022-11-05T05:40:25.135Z,17.70
2022-11-05T05:42:56.566Z,15.40
2022-11-05T05:45:24.795Z,17.27
2022-11-05T05:47:52.983Z,15.97
2022-11-05T05:50:21.578Z,16.97
2022-11-05T05:52:49.781Z,15.13
2022-11-05T05:55:18.247Z,15.73
2022-11-05T05:57:46.652Z,21.43
2022-11-05T06:00:16.748Z,16.13
2022-11-05T06:02:45.422Z,16.27
2022-11-05T06:05:13.761Z,14.83
2022-11-05T06:07:41.916Z,16.57
2022-11-05T06:10:10.686Z,16.57
2022-11-05T06:12:39.106Z,15.93
2022-11-05T06:15:07.962Z,19.20
2022-11-05T06:17:37.532Z,22.33
2022-11-05T06:20:08.593Z,15.07
2022-11-05T06:22:36.791Z,14.50
2022-11-05T06:25:05.507Z,15.77
2022-11-05T06:27:34.061Z,17.53
2022-11-05T06:30:02.448Z,14.83
2022-11-05T06:32:31.212Z,13.43
2022-11-05T06:35:00.914Z,16.13
2022-11-05T06:37:29.139Z,18.37
2022-11-05T06:39:57.499Z,12.60
2022-11-05T06:42:25.723Z,17.30
2022-11-05T06:44:54.710Z,17.43
2022-11-05T06:47:23.096Z,17.30
2022-11-05T06:49:51.399Z,16.17
2022-11-05T06:52:21.388Z,17.33
2022-11-05T06:54:49.870Z,14.23
2022-11-05T06:57:18.035Z,17.17
2022-11-05T06:59:46.626Z,16.47
2022-11-05T07:02:15.607Z,14.43
2022-11-05T07:04:44.104Z,12.63
2022-11-05T07:07:12.526Z,15.83
2022-11-05T07:09:43.280Z,15.50
2022-11-05T07:12:11.686Z,17.57
2022-11-05T07:14:39.964Z,16.00
2022-11-05T07:17:08.272Z,23.47
2022-11-05T07:19:36.555Z,15.47
2022-11-05T07:22:04.893Z,14.40
2022-11-05T07:24:33.484Z,15.27
2022-11-05T07:27:02.991Z,13.33
2022-11-05T07:29:31.262Z,12.97
2022-11-05T07:31:59.527Z,17.77
2022-11-05T07:34:28.213Z,16.57
2022-11-05T07:36:56.690Z,17.40
2022-11-05T07:39:24.953Z,14.00
2022-11-05T07:41:54.858Z,16.07
2022-11-05T07:44:24.768Z,14.77
2022-11-05T07:46:53.189Z,15.40
2022-11-05T07:49:21.638Z,16.30
2022-11-05T07:51:49.841Z,16.90
2022-11-05T07:54:18.136Z,12.90
2022-11-05T07:56:48.363Z,10.40
2022-11-05T07:59:16.529Z,15.17
2022-11-05T08:01:46.155Z,15.77
2022-11-05T08:04:16.175Z,13.30
2022-11-05T08:06:44.525Z,14.67
2022-11-05T08:09:15.035Z,14.53
2022-11-05T08:11:43.240Z,13.07
2022-11-05T08:14:11.619Z,13.03
2022-11-05T08:16:39.877Z,13.70
2022-11-05T08:19:09.365Z,15.77
2022-11-05T08:21:37.699Z,11.03
2022-11-05T08:24:06.409Z,15.87
2022-11-05T08:26:34.677Z,13.43
2022-11-05T08:29:02.913Z,12.73
2022-11-05T08:31:32.042Z,15.17
2022-11-05T08:34:02.580Z,18.67
2022-11-05T08:36:32.392Z,13.60
2022-11-05T08:39:00.713Z,16.07
2022-11-05T08:41:29.055Z,14.73
2022-11-05T08:43:57.653Z,15.50
2022-11-05T08:46:26.074Z,15.03
2022-11-05T08:48:54.511Z,17.03
2022-11-05T08:51:22.920Z,16.27
2022-11-05T08:53:52.570Z,15.30
2022-11-05T08:56:20.977Z,13.87
2022-11-05T08:58:49.274Z,13.97
2022-11-05T09:01:17.897Z,12.10
2022-11-05T09:03:46.190Z,18.07
2022-11-05T09:06:14.643Z,14.23
2022-11-05T09:08:43.063Z,13.40
2022-11-05T09:11:12.715Z,12.40
2022-11-05T09:13:40.991Z,12.33
2022-11-05T09:16:18.686Z,17.97
2022-11-05T09:18:47.106Z,12.93
2022-11-05T09:21:15.392Z,14.07
2022-11-05T09:23:44.063Z,11.80
2022-11-05T09:26:15.539Z,14.20
2022-11-05T09:28:44.312Z,11.57
2022-11-05T09:31:13.136Z,14.53
2022-11-05T09:33:42.411Z,13.80
2022-11-05T09:36:10.912Z,11.37
2022-11-05T09:38:39.328Z,13.83
2022-11-05T09:41:12.903Z,15.67
2022-11-05T09:43:46.731Z,13.93
2022-11-05T09:46:19.336Z,17.63
2022-11-05T09:48:51.387Z,19.20
2022-11-05T09:51:23.849Z,17.90
2022-11-05T09:53:53.557Z,13.10
2022-11-05T09:56:25.156Z,11.40
2022-11-05T09:58:59.649Z,10.70
2022-11-05T10:01:31.644Z,9.93
2022-11-05T10:04:03.019Z,9.23
2022-11-05T10:06:31.649Z,12.57
2022-11-05T10:09:05.268Z,13.37
2022-11-05T10:11:38.984Z,11.77
2022-11-05T10:14:17.245Z,9.63
2022-11-05T10:16:49.731Z,13.83
2022-11-05T10:19:23.963Z,12.53
2022-11-05T10:22:06.055Z,14.10
2022-11-05T10:24:35.222Z,16.60
2022-11-05T10:27:03.918Z,15.30
2022-11-05T10:29:35.456Z,14.17
2022-11-05T10:32:07.262Z,15.73
2022-11-05T10:34:37.960Z,12.73
2022-11-05T10:37:06.441Z,14.87
2022-11-05T10:39:35.120Z,12.00
2022-11-05T10:42:27.844Z,10.03
2022-11-05T10:45:05.004Z,8.90
2022-11-05T10:48:05.301Z,8.93
2022-11-05T10:50:33.935Z,12.90
2022-11-05T10:53:07.871Z,10.80
2022-11-05T10:55:38.730Z,17.70
2022-11-05T10:58:12.341Z,10.80
2022-11-05T11:00:43.408Z,10.63
2022-11-05T11:03:34.499Z,11.47
2022-11-05T11:06:04.334Z,12.47
2022-11-05T11:08:36.102Z,8.53
2022-11-05T11:11:06.752Z,11.13
2022-11-05T11:13:52.321Z,9.20
2022-11-05T11:16:24.567Z,11.70
2022-11-05T11:18:55.319Z,7.97
2022-11-05T11:21:24.297Z,14.07
2022-11-05T11:23:57.025Z,12.93
2022-11-05T11:26:27.367Z,15.87
2022-11-05T11:28:59.898Z,8.90
2022-11-05T11:31:31.703Z,10.63
2022-11-05T11:34:05.382Z,8.77
2022-11-05T11:36:37.015Z,12.37
2022-11-05T11:39:07.248Z,11.73
2022-11-05T11:41:38.957Z,11.37
2022-11-05T11:44:12.542Z,12.20
2022-11-05T11:46:42.724Z,14.80
2022-11-05T11:49:31.954Z,14.10
2022-11-05T11:52:04.379Z,14.43
2022-11-05T11:54:34.754Z,10.60
2022-11-05T11:57:03.293Z,8.90
2022-11-05T12:00:01.756Z,9.13
2022-11-05T12:02:48.433Z,9.27
2022-11-05T12:05:30.814Z,10.00
2022-11-05T12:08:07.672Z,15.03
2022-11-05T12:10:46.061Z,11.17
2022-11-05T12:14:04.262Z,9.57
2022-11-05T12:17:12.839Z,13.53
2022-11-05T12:20:01.336Z,9.57
2022-11-05T12:22:41.935Z,10.17
2022-11-05T12:25:19.625Z,17.43
2022-11-05T12:28:02.782Z,13.27
2022-11-05T12:30:37.506Z,11.20
2022-11-05T12:33:22.446Z,8.73
2022-11-05T12:36:04.374Z,10.80
2022-11-05T12:38:49.401Z,10.02
2022-11-05T12:41:25.885Z,9.05
2022-11-05T12:44:17.222Z,14.87
2022-11-05T12:46:53.599Z,6.53
2022-11-05T12:49:45.230Z,8.90
2022-11-05T12:52:54.338Z,10.67
2022-11-05T12:55:25.696Z,10.47
2022-11-05T12:57:56.045Z,10.80
2022-11-05T13:00:25.586Z,13.93
2022-11-05T13:03:00.642Z,9.87
2022-11-05T13:05:35.242Z,13.63
2022-11-05T13:08:10.411Z,8.63
2022-11-05T13:10:42.098Z,10.87
2022-11-05T13:13:17.619Z,10.13
2022-11-05T13:15:51.661Z,15.30
2022-11-05T13:18:25.024Z,10.53
2022-11-05T13:20:54.926Z,7.60
2022-11-05T13:23:31.388Z,11.17
2022-11-05T13:26:04.368Z,11.70
2022-11-05T13:28:39.688Z,12.00
2022-11-05T13:31:15.039Z,11.27
2022-11-05T13:33:45.387Z,8.77
2022-11-05T13:36:35.765Z,9.90
2022-11-05T13:39:13.368Z,7.97
2022-11-05T13:41:54.996Z,12.40
2022-11-05T13:44:53.996Z,9.13
2022-11-05T13:47:50.354Z,10.48
2022-11-05T13:50:49.830Z,14.35
2022-11-05T13:53:51.181Z,11.00
2022-11-05T13:56:34.435Z,12.93
2022-11-05T13:59:25.682Z,11.70
2022-11-05T14:01:57.972Z,12.48
2022-11-05T14:04:33.983Z,9.70
2022-11-05T14:07:11.022Z,12.73
2022-11-05T14:09:40.498Z,11.43
2022-11-05T14:12:22.427Z,12.30
2022-11-05T14:14:58.885Z,9.23
2022-11-05T14:17:34.013Z,10.20
2022-11-05T14:20:26.722Z,11.10
2022-11-05T14:22:55.303Z,9.83
2022-11-05T14:25:54.149Z,9.75
2022-11-05T14:28:45.231Z,8.07
2022-11-05T14:31:54.463Z,9.43
2022-11-05T14:34:25.108Z,5.67
2022-11-05T14:37:31.105Z,7.27
2022-11-05T14:40:20.200Z,9.17
2022-11-05T14:42:52.977Z,11.07
2022-11-05T14:45:31.158Z,11.40
2022-11-05T14:48:01.285Z,8.57
2022-11-05T14:50:37.682Z,11.27
2022-11-05T14:53:25.133Z,12.83
2022-11-05T14:56:01.387Z,8.70
2022-11-05T14:58:32.446Z,9.83
2022-11-05T15:01:04.111Z,10.18
2022-11-05T15:04:01.029Z,9.05
2022-11-05T15:06:36.011Z,7.35
2022-11-05T15:09:16.896Z,10.03
2022-11-05T15:11:53.502Z,8.45
2022-11-05T15:14:28.138Z,9.57
2022-11-05T15:17:02.804Z,11.33
2022-11-05T15:19:33.510Z,8.63
2022-11-05T15:22:05.522Z,11.35
2022-11-05T15:24:36.160Z,6.77
2022-11-05T15:27:09.976Z,11.47
2022-11-05T15:29:38.381Z,8.93
2022-11-05T15:32:17.382Z,9.13
2022-11-05T15:34:53.008Z,9.10
2022-11-05T15:37:26.451Z,7.50
2022-11-05T15:39:55.712Z,9.43
2022-11-05T15:42:26.151Z,7.75
2022-11-05T15:44:56.336Z,9.80
2022-11-05T15:47:28.447Z,9.95
2022-11-05T15:49:58.285Z,7.73
2022-11-05T15:52:33.468Z,7.43
2022-11-05T15:55:10.491Z,6.82
2022-11-05T15:57:40.448Z,9.90
2022-11-05T16:00:17.527Z,7.00
2022-11-05T16:02:54.033Z,6.45
2022-11-05T16:05:22.813Z,5.93
2022-11-05T16:07:51.428Z,7.27
2022-11-05T16:10:21.638Z,8.65
2022-11-05T16:12:50.505Z,8.48
2022-11-05T16:15:22.347Z,7.20
2022-11-05T16:17:55.319Z,9.38
2022-11-05T16:20:30.011Z,6.55
2022-11-05T16:22:59.522Z,9.57
2022-11-05T16:25:47.455Z,6.93
2022-11-05T16:28:23.259Z,8.70
2022-11-05T16:30:56.865Z,11.63
2022-11-05T16:33:28.327Z,10.40
2022-11-05T16:35:56.604Z,13.27
2022-11-05T16:38:25.392Z,10.43
2022-11-05T16:40:53.774Z,10.27
2022-11-05T16:43:23.980Z,9.43
2022-11-05T16:45:55.167Z,10.57
2022-11-05T16:48:23.397Z,10.00
2022-11-05T16:50:53.494Z,9.30
2022-11-05T16:53:22.152Z,13.00
2022-11-05T16:55:50.851Z,12.00
2022-11-05T16:58:21.759Z,8.37
2022-11-05T17:00:51.211Z,13.97
2022-11-05T17:03:19.660Z,14.80
2022-11-05T17:05:48.347Z,11.90
2022-11-05T17:08:17.745Z,11.97
2022-11-05T17:10:46.110Z,10.53
2022-11-05T17:13:16.582Z,11.90
2022-11-05T17:15:46.496Z,12.13
2022-11-05T17:18:18.499Z,12.57
2022-11-05T17:20:48.724Z,9.87
2022-11-05T17:23:20.336Z,9.20
2022-11-05T17:25:50.829Z,10.83
2022-11-05T17:28:20.179Z,11.90
2022-11-05T17:30:52.656Z,12.70
2022-11-05T17:33:22.667Z,10.80
2022-11-05T17:35:51.315Z,10.73
2022-11-05T17:38:21.768Z,8.27
2022-11-05T17:40:50.097Z,9.33
2022-11-05T17:43:18.661Z,10.47
2022-11-05T17:45:48.840Z,9.60
2022-11-05T17:48:17.490Z,10.03
2022-11-05T17:50:48.154Z,11.60
2022-11-05T17:53:17.679Z,12.13
2022-11-05T17:55:48.062Z,10.63
2022-11-05T17:58:16.810Z,11.47
2022-11-05T18:00:46.565Z,11.70
2022-11-05T18:03:15.480Z,9.97
2022-11-05T18:05:44.059Z,10.87
2022-11-05T18:08:12.703Z,11.83
2022-11-05T18:10:41.961Z,9.70
2022-11-05T18:13:12.387Z,12.27
2022-11-05T18:15:41.258Z,6.80
2022-11-05T18:18:10.397Z,7.80
2022-11-05T18:20:38.620Z,10.47
2022-11-05T18:23:07.039Z,7.37
2022-11-05T18:25:35.319Z,11.53
2022-11-05T18:28:03.936Z,8.57
2022-11-05T18:30:33.516Z,10.57
2022-11-05T18:33:01.908Z,9.17
2022-11-05T18:35:30.348Z,7.30
2022-11-05T18:37:58.715Z,11.17
2022-11-05T18:40:27.681Z,9.77
2022-11-05T18:42:55.977Z,11.43
2022-11-05T18:45:29.427Z,9.50
2022-11-05T18:48:00.606Z,12.05
2022-11-05T18:50:29.088Z,20.65
2022-11-05T18:52:57.586Z,12.27
2022-11-05T18:55:25.998Z,11.80
2022-11-05T18:57:54.439Z,13.03
2022-11-05T19:00:22.956Z,12.80
2022-11-05T19:02:51.399Z,11.90
2022-11-05T19:05:28.922Z,9.20
2022-11-05T19:07:58.120Z,11.90
2022-11-05T19:10:26.933Z,10.80
2022-11-05T19:12:55.385Z,11.63
2022-11-05T19:15:23.701Z,9.13
2022-11-05T19:17:52.114Z,10.80
2022-11-05T19:20:21.624Z,11.82
2022-11-05T19:22:50.053Z,13.53
2022-11-05T19:25:18.491Z,14.37
2022-11-05T19:27:47.002Z,11.03
2022-11-05T19:30:15.419Z,9.48
2022-11-05T19:32:44.112Z,9.30
2022-11-05T19:35:12.514Z,8.55
2022-11-05T19:37:42.108Z,10.27
2022-11-05T19:40:11.552Z,11.35
2022-11-05T19:42:39.923Z,9.52
2022-11-05T19:45:38.277Z,12.77
2022-11-05T19:47:57.406Z,7.78
2022-11-05T19:50:25.796Z,11.00
2022-11-05T19:52:55.345Z,8.07
2022-11-05T19:55:23.708Z,10.45
2022-11-05T19:57:52.168Z,11.18
2022-11-05T20:00:20.569Z,9.55
2022-11-05T20:02:49.188Z,10.13
2022-11-05T20:05:18.345Z,7.70
2022-11-05T20:07:52.287Z,8.07
2022-11-05T20:10:22.981Z,10.48
2022-11-05T20:12:51.634Z,11.57
2022-11-05T20:15:20.187Z,8.45
2022-11-05T20:17:52.313Z,7.60
2022-11-05T20:20:21.149Z,8.57
2022-11-05T20:22:49.572Z,10.27
2022-11-05T20:25:17.942Z,7.88
2022-11-05T20:27:47.621Z,9.27
2022-11-05T20:30:15.897Z,13.20
2022-11-05T20:32:44.108Z,7.90
2022-11-05T20:35:12.852Z,13.60
2022-11-05T20:37:41.231Z,11.95
2022-11-05T20:40:10.392Z,7.22
2022-11-05T20:42:38.921Z,11.02
2022-11-05T20:45:09.677Z,7.90
2022-11-05T20:47:38.554Z,8.18
2022-11-05T20:50:08.002Z,11.23
2022-11-05T20:52:36.271Z,7.53
2022-11-05T20:55:08.936Z,8.73
2022-11-05T20:57:37.514Z,6.88
2022-11-05T21:00:08.838Z,7.93
2022-11-05T21:02:38.927Z,11.52
2022-11-05T21:05:08.436Z,8.85
2022-11-05T21:07:36.740Z,10.23
2022-11-05T21:10:05.446Z,11.13
2022-11-05T21:12:34.068Z,8.80
2022-11-05T21:15:02.398Z,12.98
2022-11-05T21:17:31.889Z,8.38
2022-11-05T21:20:00.178Z,12.98
2022-11-05T21:22:28.540Z,8.05
2022-11-05T21:24:57.167Z,10.23
2022-11-05T21:27:25.580Z,11.13
2022-11-05T21:29:53.962Z,10.75
2022-11-05T21:32:22.267Z,7.20
2022-11-05T21:34:52.073Z,9.00
2022-11-05T21:37:20.467Z,8.20
2022-11-05T21:39:48.823Z,7.50
2022-11-05T21:42:17.117Z,8.43
2022-11-05T21:44:45.441Z,9.13
2022-11-05T21:47:14.536Z,6.68
2022-11-05T21:49:42.948Z,9.38
2022-11-05T21:52:30.898Z,7.43
2022-11-05T21:55:16.379Z,9.27
2022-11-05T21:58:02.135Z,12.53
2022-11-05T22:00:31.091Z,6.28
2022-11-05T22:03:00.506Z,9.45
2022-11-05T22:05:29.203Z,6.22
2022-11-05T22:07:58.698Z,10.82
2022-11-05T22:10:26.925Z,5.73
2022-11-05T22:12:55.830Z,6.93
2022-11-05T22:15:24.011Z,10.73
2022-11-05T22:17:52.481Z,9.27
2022-11-05T22:20:20.760Z,8.23
2022-11-05T22:22:49.071Z,10.33
2022-11-05T22:25:18.507Z,7.35
2022-11-05T22:27:46.778Z,7.88
2022-11-05T22:30:15.397Z,6.93
2022-11-05T22:32:43.532Z,8.95
2022-11-05T22:35:12.075Z,9.25
2022-11-05T22:37:40.506Z,8.63
2022-11-05T22:40:09.645Z,9.90
2022-11-05T22:42:39.731Z,7.93
2022-11-05T22:45:08.580Z,11.55
2022-11-05T22:47:36.976Z,8.45
2022-11-05T22:50:06.001Z,10.67
2022-11-05T22:52:34.463Z,8.38
2022-11-05T22:55:05.290Z,6.70
2022-11-05T22:57:33.674Z,9.88
2022-11-05T23:00:04.670Z,9.90
2022-11-05T23:02:33.097Z,9.90
2022-11-05T23:05:01.446Z,11.38
2022-11-05T23:07:47.399Z,10.07
2022-11-05T23:10:32.942Z,12.75
2022-11-05T23:13:01.249Z,9.60
2022-11-05T23:15:48.246Z,11.13
2022-11-05T23:18:34.053Z,8.50
2022-11-05T23:21:23.067Z,9.68
2022-11-05T23:24:06.964Z,12.55
2022-11-05T23:26:51.259Z,11.48
2022-11-05T23:29:20.178Z,12.43
2022-11-05T23:32:07.525Z,10.18
2022-11-05T23:34:35.914Z,10.07
2022-11-05T23:37:22.307Z,8.10
2022-11-05T23:39:51.329Z,13.07
2022-11-05T23:42:37.022Z,10.70
2022-11-05T23:45:23.173Z,7.70
2022-11-05T23:48:10.659Z,12.67
2022-11-05T23:50:40.235Z,10.25
2022-11-05T23:53:09.498Z,10.23
2022-11-05T23:55:38.028Z,7.90
2022-11-05T23:58:06.207Z,9.57
